createdAt,value
2019-03-15T00:00:55.491Z,0
2019-03-15T00:01:55.493Z,0
2019-03-15T00:02:55.472Z,0
2019-03-15T00:03:55.567Z,0
2019-03-15T00:04:55.451Z,0
2019-03-15T00:05:55.432Z,0
2019-03-15T00:06:55.428Z,0
2019-03-15T00:07:55.402Z,0
2019-03-15T00:08:55.396Z,0
2019-03-15T00:09:55.603Z,0
2019-03-15T00:10:55.364Z,0
2019-03-15T00:11:55.425Z,0
2019-03-15T00:12:55.389Z,0
2019-03-15T00:13:55.338Z,0
2019-03-15T00:14:55.317Z,0
2019-03-15T00:15:55.307Z,0
2019-03-15T00:16:55.296Z,0
2019-03-15T00:17:55.279Z,0
2019-03-15T00:18:56.354Z,0
2019-03-15T00:19:55.278Z,0
2019-03-15T00:20:55.245Z,0
2019-03-15T00:21:55.235Z,0
2019-03-15T00:22:55.225Z,0
2019-03-15T00:23:55.059Z,0
2019-03-15T00:24:55.212Z,0
2019-03-15T00:25:57.752Z,0
2019-03-15T00:26:55.190Z,0
2019-03-15T00:27:55.163Z,0
2019-03-15T00:28:54.908Z,0
2019-03-15T00:29:55.132Z,0
2019-03-15T00:30:55.124Z,0
2019-03-15T00:31:55.108Z,0
2019-03-15T00:32:55.110Z,0
2019-03-15T00:33:55.481Z,0
2019-03-15T00:34:55.077Z,0
2019-03-15T00:35:55.055Z,0
2019-03-15T00:36:55.048Z,0
2019-03-15T00:37:55.036Z,0
2019-03-15T00:38:55.024Z,0
2019-03-15T00:39:55.008Z,0
2019-03-15T00:40:54.995Z,0
2019-03-15T00:41:54.988Z,0
2019-03-15T00:42:54.981Z,0
2019-03-15T00:43:56.600Z,0
2019-03-15T00:44:54.951Z,0
2019-03-15T00:45:54.935Z,0
2019-03-15T00:46:54.921Z,0
2019-03-15T00:47:54.928Z,0
2019-03-15T00:48:55.752Z,0
2019-03-15T00:49:54.889Z,0
2019-03-15T00:50:54.879Z,0
2019-03-15T00:51:54.869Z,0
2019-03-15T00:52:54.845Z,0
2019-03-15T00:53:56.781Z,0
2019-03-15T00:54:54.890Z,0
2019-03-15T00:55:54.976Z,0
2019-03-15T00:56:54.802Z,0
2019-03-15T00:57:54.784Z,0
2019-03-15T00:58:54.773Z,0
2019-03-15T00:59:54.757Z,0
2019-03-15T01:00:54.756Z,0
2019-03-15T01:01:55.157Z,0
2019-03-15T01:02:54.846Z,0
2019-03-15T01:03:54.715Z,0
2019-03-15T01:04:54.450Z,0
2019-03-15T01:05:54.712Z,0
2019-03-15T01:06:54.678Z,0
2019-03-15T01:07:54.676Z,0
2019-03-15T01:08:54.650Z,0
2019-03-15T01:09:54.632Z,0
2019-03-15T01:10:54.621Z,0
2019-03-15T01:11:54.929Z,0
2019-03-15T01:12:55.726Z,0
2019-03-15T01:13:54.583Z,0
2019-03-15T01:14:54.574Z,0
2019-03-15T01:15:54.563Z,0
2019-03-15T01:16:54.551Z,0
2019-03-15T01:17:55.010Z,0
2019-03-15T01:18:54.525Z,0
2019-03-15T01:19:54.505Z,0
2019-03-15T01:20:54.504Z,0
2019-03-15T01:21:54.492Z,0
2019-03-15T01:22:54.470Z,0
2019-03-15T01:23:54.509Z,0
2019-03-15T01:24:54.447Z,0
2019-03-15T01:25:54.439Z,0
2019-03-15T01:26:54.421Z,0
2019-03-15T01:27:54.495Z,0
2019-03-15T01:28:54.395Z,0
2019-03-15T01:29:54.410Z,0
2019-03-15T01:30:54.382Z,0
2019-03-15T01:31:54.418Z,0
2019-03-15T01:32:54.354Z,0
2019-03-15T01:33:54.339Z,0
2019-03-15T01:34:54.325Z,0
2019-03-15T01:35:54.320Z,0
2019-03-15T01:36:54.351Z,0
2019-03-15T01:37:54.070Z,0
2019-03-15T01:38:54.278Z,0
2019-03-15T01:39:54.385Z,0
2019-03-15T01:40:55.488Z,0
2019-03-15T01:41:54.041Z,0
2019-03-15T01:42:55.069Z,0
2019-03-15T01:43:54.213Z,0
2019-03-15T01:44:54.440Z,0
2019-03-15T01:45:54.194Z,0
2019-03-15T01:46:54.178Z,0
2019-03-15T01:47:55.234Z,0
2019-03-15T01:48:54.160Z,0
2019-03-15T01:49:54.343Z,0
2019-03-15T01:50:55.083Z,0
2019-03-15T01:51:54.114Z,0
2019-03-15T01:52:54.112Z,0
2019-03-15T01:53:54.096Z,0
2019-03-15T01:54:54.143Z,0
2019-03-15T01:55:53.833Z,0
2019-03-15T01:56:54.060Z,0
2019-03-15T01:57:54.043Z,0
2019-03-15T01:58:54.029Z,0
2019-03-15T01:59:54.018Z,0
2019-03-15T02:00:54.009Z,0
2019-03-15T02:01:54.002Z,0
2019-03-15T02:02:53.990Z,0
2019-03-15T02:03:53.980Z,0
2019-03-15T02:04:53.751Z,0
2019-03-15T02:05:54.342Z,0
2019-03-15T02:06:53.939Z,0
2019-03-15T02:07:53.934Z,0
2019-03-15T02:08:55.005Z,0
2019-03-15T02:09:53.887Z,0
2019-03-15T02:10:53.886Z,0
2019-03-15T02:11:53.896Z,0
2019-03-15T02:12:54.601Z,0
2019-03-15T02:13:53.627Z,0
2019-03-15T02:14:53.844Z,0
2019-03-15T02:15:53.823Z,0
2019-03-15T02:16:53.831Z,0
2019-03-15T02:17:54.989Z,0
2019-03-15T02:18:53.979Z,0
2019-03-15T02:19:53.780Z,0
2019-03-15T02:20:53.761Z,0
2019-03-15T02:21:53.747Z,0
2019-03-15T02:22:53.500Z,0
2019-03-15T02:23:53.729Z,0
2019-03-15T02:24:53.720Z,0
2019-03-15T02:25:53.702Z,0
2019-03-15T02:26:53.690Z,0
2019-03-15T02:27:53.687Z,0
2019-03-15T02:28:53.665Z,0
2019-03-15T02:29:53.408Z,0
2019-03-15T02:30:53.689Z,0
2019-03-15T02:31:54.313Z,0
2019-03-15T02:32:53.631Z,0
2019-03-15T02:33:53.641Z,0
2019-03-15T02:34:53.952Z,0
2019-03-15T02:35:54.494Z,0
2019-03-15T02:36:53.582Z,0
2019-03-15T02:37:53.582Z,0
2019-03-15T02:38:54.168Z,0
2019-03-15T02:39:53.385Z,0
2019-03-15T02:40:53.554Z,0
2019-03-15T02:41:53.520Z,0
2019-03-15T02:42:53.536Z,0
2019-03-15T02:43:53.624Z,0
2019-03-15T02:44:53.256Z,0
2019-03-15T02:45:53.478Z,0
2019-03-15T02:46:54.887Z,0
2019-03-15T02:47:53.895Z,0
2019-03-15T02:48:53.439Z,0
2019-03-15T02:49:53.433Z,0
2019-03-15T02:50:53.404Z,0
2019-03-15T02:51:54.682Z,0
2019-03-15T02:52:53.439Z,0
2019-03-15T02:53:53.428Z,0
2019-03-15T02:54:54.472Z,0
2019-03-15T02:55:55.050Z,0
2019-03-15T02:56:53.366Z,0
2019-03-15T02:57:53.328Z,0
2019-03-15T02:58:54.002Z,0
2019-03-15T02:59:54.456Z,0
2019-03-15T03:00:53.485Z,0
2019-03-15T03:01:53.284Z,0
2019-03-15T03:02:54.049Z,0
2019-03-15T03:03:54.329Z,0
2019-03-15T03:04:53.274Z,0
2019-03-15T03:05:53.276Z,0
2019-03-15T03:06:53.209Z,0
2019-03-15T03:07:53.478Z,0
2019-03-15T03:08:53.203Z,0
2019-03-15T03:09:53.189Z,0
2019-03-15T03:10:53.243Z,0
2019-03-15T03:11:54.509Z,0
2019-03-15T03:12:53.723Z,0
2019-03-15T03:13:53.144Z,0
2019-03-15T03:14:53.141Z,0
2019-03-15T03:15:54.450Z,0
2019-03-15T03:16:53.518Z,0
2019-03-15T03:17:53.104Z,0
2019-03-15T03:18:53.076Z,0
2019-03-15T03:19:54.073Z,0
2019-03-15T03:20:53.327Z,0
2019-03-15T03:21:53.038Z,0
2019-03-15T03:22:53.025Z,0
2019-03-15T03:23:53.055Z,0
2019-03-15T03:24:53.502Z,0
2019-03-15T03:25:53.735Z,0
2019-03-15T03:26:52.974Z,0
2019-03-15T03:27:53.008Z,0
2019-03-15T03:28:54.027Z,0
2019-03-15T03:29:54.147Z,0
2019-03-15T03:30:55.384Z,0
2019-03-15T03:31:54.210Z,0
2019-03-15T03:32:54.306Z,0
2019-03-15T03:33:53.103Z,0
2019-03-15T03:34:52.904Z,0
2019-03-15T03:35:52.870Z,0
2019-03-15T03:36:57.394Z,0
2019-03-15T03:37:54.669Z,0
2019-03-15T03:38:52.833Z,0
2019-03-15T03:39:52.822Z,0
2019-03-15T03:40:52.824Z,0
2019-03-15T03:41:52.567Z,0
2019-03-15T03:42:52.786Z,0
2019-03-15T03:43:52.769Z,0
2019-03-15T03:44:52.755Z,0
2019-03-15T03:45:52.736Z,0
2019-03-15T03:46:52.722Z,0
2019-03-15T03:47:52.939Z,0
2019-03-15T03:48:52.710Z,0
2019-03-15T03:49:53.540Z,0
2019-03-15T03:50:52.932Z,0
2019-03-15T03:51:52.680Z,0
2019-03-15T03:52:52.414Z,0
2019-03-15T03:53:52.664Z,0
2019-03-15T03:54:52.630Z,0
2019-03-15T03:55:54.040Z,0
2019-03-15T03:56:52.973Z,0
2019-03-15T03:57:52.602Z,0
2019-03-15T03:58:52.680Z,0
2019-03-15T03:59:52.577Z,0
2019-03-15T04:00:52.558Z,0
2019-03-15T04:01:52.625Z,0
2019-03-15T04:02:55.755Z,0
2019-03-15T04:03:52.322Z,0
2019-03-15T04:04:52.555Z,0
2019-03-15T04:05:52.495Z,0
2019-03-15T04:06:52.567Z,0
2019-03-15T04:07:52.651Z,0
2019-03-15T04:08:52.461Z,0
2019-03-15T04:09:52.451Z,0
2019-03-15T04:10:52.577Z,0
2019-03-15T04:12:04.314Z,0
2019-03-15T04:12:52.411Z,0
2019-03-15T04:13:52.398Z,0
2019-03-15T04:14:52.388Z,0
2019-03-15T04:15:52.382Z,0
2019-03-15T04:16:52.474Z,0
2019-03-15T04:17:52.382Z,0
2019-03-15T04:18:52.346Z,0
2019-03-15T04:19:53.011Z,0
2019-03-15T04:20:52.306Z,0
2019-03-15T04:21:52.395Z,0
2019-03-15T04:22:55.245Z,0
2019-03-15T04:23:52.281Z,0
2019-03-15T04:24:52.264Z,0
2019-03-15T04:25:52.347Z,0
2019-03-15T04:26:52.249Z,0
2019-03-15T04:27:52.233Z,0
2019-03-15T04:28:52.214Z,0
2019-03-15T04:29:52.204Z,0
2019-03-15T04:30:52.320Z,0
2019-03-15T04:31:52.177Z,0
2019-03-15T04:32:52.165Z,0
2019-03-15T04:33:52.158Z,0
2019-03-15T04:34:52.141Z,0
2019-03-15T04:35:52.205Z,0
2019-03-15T04:36:52.130Z,0
2019-03-15T04:37:52.117Z,0
2019-03-15T04:38:52.099Z,0
2019-03-15T04:39:52.084Z,0
2019-03-15T04:40:52.070Z,0
2019-03-15T04:41:52.079Z,0
2019-03-15T04:42:52.049Z,0
2019-03-15T04:43:51.849Z,0
2019-03-15T04:44:52.022Z,0
2019-03-15T04:45:52.007Z,0
2019-03-15T04:46:52.007Z,0
2019-03-15T04:47:53.205Z,0
2019-03-15T04:48:51.973Z,0
2019-03-15T04:49:51.960Z,0
2019-03-15T04:50:52.249Z,0
2019-03-15T04:51:51.938Z,0
2019-03-15T04:52:51.974Z,0
2019-03-15T04:53:51.909Z,0
2019-03-15T04:54:51.902Z,0
2019-03-15T04:55:51.643Z,0
2019-03-15T04:56:51.870Z,0
2019-03-15T04:57:51.860Z,0
2019-03-15T04:58:51.851Z,0
2019-03-15T04:59:51.833Z,0
2019-03-15T05:00:51.826Z,0
2019-03-15T05:01:51.812Z,0
2019-03-15T05:02:51.799Z,0
2019-03-15T05:03:51.787Z,0
2019-03-15T05:04:51.783Z,0
2019-03-15T05:06:04.884Z,0
2019-03-15T05:06:51.755Z,0
2019-03-15T05:07:51.746Z,0
2019-03-15T05:08:51.747Z,0
2019-03-15T05:09:51.714Z,0
2019-03-15T05:10:51.702Z,0
2019-03-15T05:11:51.710Z,0
2019-03-15T05:12:51.691Z,0
2019-03-15T05:13:51.729Z,0
2019-03-15T05:14:51.664Z,5
2019-03-15T05:15:51.714Z,5
2019-03-15T05:16:51.623Z,5
2019-03-15T05:17:51.639Z,5
2019-03-15T05:18:51.614Z,5
2019-03-15T05:19:51.590Z,5
2019-03-15T05:20:51.583Z,5
2019-03-15T05:21:51.665Z,5
2019-03-15T05:22:51.571Z,5
2019-03-15T05:23:51.540Z,10
2019-03-15T05:24:51.530Z,10
2019-03-15T05:25:51.526Z,10
2019-03-15T05:26:51.507Z,10
2019-03-15T05:27:51.499Z,10
2019-03-15T05:28:51.479Z,10
2019-03-15T05:29:51.494Z,10
2019-03-15T05:30:51.457Z,10
2019-03-15T05:31:51.454Z,10
2019-03-15T05:32:51.188Z,10
2019-03-15T05:33:51.425Z,15
2019-03-15T05:34:51.407Z,15
2019-03-15T05:35:51.561Z,15
2019-03-15T05:36:51.392Z,20
2019-03-15T05:37:51.313Z,20
2019-03-15T05:38:51.361Z,25
2019-03-15T05:39:51.110Z,35
2019-03-15T05:40:51.336Z,40
2019-03-15T05:41:51.332Z,25
2019-03-15T05:42:51.306Z,20
2019-03-15T05:43:53.107Z,15
2019-03-15T05:44:51.067Z,20
2019-03-15T05:45:51.303Z,20
2019-03-15T05:46:51.269Z,20
2019-03-15T05:47:51.254Z,20
2019-03-15T05:48:51.240Z,15
2019-03-15T05:49:51.224Z,15
2019-03-15T05:50:51.218Z,15
2019-03-15T05:51:51.217Z,10
2019-03-15T05:52:51.201Z,10
2019-03-15T05:53:51.347Z,10
2019-03-15T05:54:51.158Z,15
2019-03-15T05:55:51.157Z,20
2019-03-15T05:56:51.147Z,20
2019-03-15T05:57:51.136Z,15
2019-03-15T05:58:51.231Z,20
2019-03-15T05:59:50.859Z,25
2019-03-15T06:00:51.096Z,20
2019-03-15T06:01:51.084Z,15
2019-03-15T06:02:51.091Z,25
2019-03-15T06:03:57.997Z,30
2019-03-15T06:04:51.047Z,30
2019-03-15T06:05:51.049Z,20
2019-03-15T06:06:51.022Z,25
2019-03-15T06:07:51.013Z,20
2019-03-15T06:08:51.005Z,20
2019-03-15T06:09:50.745Z,20
2019-03-15T06:10:50.984Z,20
2019-03-15T06:11:50.971Z,30
2019-03-15T06:12:50.952Z,35
2019-03-15T06:13:50.941Z,40
2019-03-15T06:14:54.118Z,35
2019-03-15T06:15:50.928Z,30
2019-03-15T06:16:50.917Z,30
2019-03-15T06:17:50.895Z,40
2019-03-15T06:18:50.878Z,50
2019-03-15T06:19:50.786Z,55
2019-03-15T06:20:50.886Z,45
2019-03-15T06:21:50.840Z,40
2019-03-15T06:22:50.854Z,45
2019-03-15T06:23:50.829Z,55
2019-03-15T06:24:50.804Z,65
2019-03-15T06:25:50.811Z,75
2019-03-15T06:26:50.782Z,75
2019-03-15T06:27:50.779Z,85
2019-03-15T06:28:50.784Z,65
2019-03-15T06:29:50.749Z,55
2019-03-15T06:30:50.737Z,45
2019-03-15T06:31:50.728Z,40
2019-03-15T06:32:50.715Z,55
2019-03-15T06:33:50.706Z,55
2019-03-15T06:34:50.773Z,50
2019-03-15T06:35:50.679Z,50
2019-03-15T06:36:50.672Z,55
2019-03-15T06:37:50.664Z,75
2019-03-15T06:38:50.640Z,80
2019-03-15T06:39:50.634Z,75
2019-03-15T06:40:50.622Z,95
2019-03-15T06:41:50.612Z,115
2019-03-15T06:42:50.613Z,100
2019-03-15T06:43:50.651Z,75
2019-03-15T06:45:04.332Z,90
2019-03-15T06:45:51.465Z,115
2019-03-15T06:46:50.549Z,140
2019-03-15T06:47:50.540Z,140
2019-03-15T06:48:52.314Z,165
2019-03-15T06:49:50.345Z,200
2019-03-15T06:50:50.259Z,215
2019-03-15T06:51:50.494Z,180
2019-03-15T06:52:50.490Z,205
2019-03-15T06:53:52.710Z,235
2019-03-15T06:54:50.458Z,260
2019-03-15T06:55:51.294Z,285
2019-03-15T06:56:50.431Z,270
2019-03-15T06:57:50.423Z,345
2019-03-15T06:58:50.417Z,190
2019-03-15T06:59:49.933Z,150
2019-03-15T07:00:50.397Z,155
2019-03-15T07:01:50.762Z,155
2019-03-15T07:02:51.046Z,170
2019-03-15T07:03:50.363Z,205
2019-03-15T07:04:50.361Z,195
2019-03-15T07:05:50.425Z,185
2019-03-15T07:06:50.337Z,215
2019-03-15T07:07:50.520Z,225
2019-03-15T07:08:50.314Z,205
2019-03-15T07:09:50.336Z,200
2019-03-15T07:10:53.812Z,175
2019-03-15T07:11:50.289Z,160
2019-03-15T07:12:50.439Z,170
2019-03-15T07:13:51.148Z,210
2019-03-15T07:14:50.247Z,230
2019-03-15T07:15:53.558Z,240
2019-03-15T07:16:50.226Z,235
2019-03-15T07:17:51.206Z,215
2019-03-15T07:18:50.218Z,205
2019-03-15T07:19:50.189Z,215
2019-03-15T07:20:51.381Z,205
2019-03-15T07:21:52.144Z,220
2019-03-15T07:22:50.172Z,230
2019-03-15T07:23:50.384Z,215
2019-03-15T07:24:53.162Z,220
2019-03-15T07:25:50.135Z,220
2019-03-15T07:26:54.262Z,240
2019-03-15T07:27:52.196Z,265
2019-03-15T07:28:50.122Z,295
2019-03-15T07:29:50.104Z,275
2019-03-15T07:30:50.090Z,265
2019-03-15T07:31:50.079Z,225
2019-03-15T07:32:50.083Z,205
2019-03-15T07:33:50.090Z,215
2019-03-15T07:34:50.752Z,250
2019-03-15T07:35:50.033Z,270
2019-03-15T07:36:50.089Z,275
2019-03-15T07:37:52.736Z,340
2019-03-15T07:38:50.013Z,365
2019-03-15T07:39:50.002Z,370
2019-03-15T07:40:50.593Z,350
2019-03-15T07:41:49.979Z,350
2019-03-15T07:42:49.973Z,395
2019-03-15T07:43:49.963Z,405
2019-03-15T07:44:51.545Z,345
2019-03-15T07:45:49.952Z,340
2019-03-15T07:46:53.420Z,385
2019-03-15T07:47:50.002Z,365
2019-03-15T07:48:49.954Z,380
2019-03-15T07:49:49.913Z,375
2019-03-15T07:50:49.903Z,375
2019-03-15T07:51:49.890Z,370
2019-03-15T07:52:49.650Z,330
2019-03-15T07:53:49.872Z,370
2019-03-15T07:54:49.864Z,415
2019-03-15T07:55:49.858Z,430
2019-03-15T07:56:49.852Z,415
2019-03-15T07:57:49.867Z,360
2019-03-15T07:58:49.827Z,385
2019-03-15T07:59:49.826Z,425
2019-03-15T08:00:49.834Z,415
2019-03-15T08:01:52.625Z,365
2019-03-15T08:02:49.796Z,385
2019-03-15T08:03:49.789Z,375
2019-03-15T08:04:49.788Z,385
2019-03-15T08:05:49.776Z,375
2019-03-15T08:06:49.768Z,390
2019-03-15T08:07:55.460Z,370
2019-03-15T08:08:50.313Z,375
2019-03-15T08:09:53.225Z,375
2019-03-15T08:10:49.739Z,360
2019-03-15T08:11:49.732Z,365
2019-03-15T08:12:52.136Z,385
2019-03-15T08:13:49.470Z,385
2019-03-15T08:14:49.700Z,415
2019-03-15T08:15:49.707Z,415
2019-03-15T08:16:49.685Z,450
2019-03-15T08:17:49.697Z,490
2019-03-15T08:18:49.672Z,495
2019-03-15T08:19:49.681Z,465
2019-03-15T08:20:49.667Z,430
2019-03-15T08:21:49.673Z,430
2019-03-15T08:22:49.643Z,440
2019-03-15T08:23:49.636Z,435
2019-03-15T08:25:00.864Z,405
2019-03-15T08:25:52.925Z,415
2019-03-15T08:26:49.377Z,435
2019-03-15T08:27:49.610Z,435
2019-03-15T08:28:49.595Z,410
2019-03-15T08:29:52.549Z,460
2019-03-15T08:30:49.583Z,435
2019-03-15T08:31:51.919Z,350
2019-03-15T08:32:53.045Z,355
2019-03-15T08:33:49.566Z,400
2019-03-15T08:34:49.560Z,445
2019-03-15T08:35:49.551Z,425
2019-03-15T08:36:49.539Z,370
2019-03-15T08:37:49.053Z,265
2019-03-15T08:38:57.162Z,295
2019-03-15T08:39:49.516Z,350
2019-03-15T08:40:49.517Z,415
2019-03-15T08:41:49.511Z,380
2019-03-15T08:42:49.509Z,395
2019-03-15T08:43:53.000Z,460
2019-03-15T08:44:49.484Z,475
2019-03-15T08:45:49.507Z,495
2019-03-15T08:46:49.465Z,470
2019-03-15T08:47:49.570Z,445
2019-03-15T08:48:48.963Z,420
2019-03-15T08:49:49.471Z,430
2019-03-15T08:50:49.512Z,440
2019-03-15T08:51:49.436Z,435
2019-03-15T08:52:53.997Z,420
2019-03-15T08:53:49.414Z,430
2019-03-15T08:55:04.196Z,440
2019-03-15T08:55:49.362Z,430
2019-03-15T08:56:49.400Z,440
2019-03-15T08:57:49.411Z,455
2019-03-15T08:58:49.403Z,470
2019-03-15T09:00:06.029Z,495
2019-03-15T09:00:49.368Z,505
2019-03-15T09:01:49.377Z,505
2019-03-15T09:02:49.403Z,505
2019-03-15T09:03:49.377Z,525
2019-03-15T09:04:52.856Z,525
2019-03-15T09:05:49.346Z,520
2019-03-15T09:06:50.680Z,510
2019-03-15T09:07:49.337Z,495
2019-03-15T09:08:49.330Z,495
2019-03-15T09:09:49.077Z,505
2019-03-15T09:10:49.379Z,480
2019-03-15T09:11:49.336Z,435
2019-03-15T09:12:49.298Z,420
2019-03-15T09:13:51.717Z,400
2019-03-15T09:14:49.325Z,395
2019-03-15T09:15:49.285Z,390
2019-03-15T09:16:49.278Z,395
2019-03-15T09:17:49.310Z,410
2019-03-15T09:18:49.268Z,425
2019-03-15T09:19:49.284Z,410
2019-03-15T09:20:49.041Z,450
2019-03-15T09:21:49.245Z,490
2019-03-15T09:22:49.017Z,490
2019-03-15T09:23:49.273Z,495
2019-03-15T09:24:49.231Z,510
2019-03-15T09:25:49.228Z,500
2019-03-15T09:26:49.228Z,510
2019-03-15T09:27:52.477Z,520
2019-03-15T09:28:49.310Z,535
2019-03-15T09:29:49.210Z,525
2019-03-15T09:30:48.946Z,555
2019-03-15T09:32:11.797Z,600
2019-03-15T09:32:49.218Z,605
2019-03-15T09:33:49.180Z,585
2019-03-15T09:34:49.168Z,595
2019-03-15T09:35:49.178Z,570
2019-03-15T09:36:59.524Z,555
2019-03-15T09:37:52.064Z,570
2019-03-15T09:38:49.145Z,590
2019-03-15T09:39:49.156Z,580
2019-03-15T09:40:49.159Z,530
2019-03-15T09:41:49.816Z,500
2019-03-15T09:42:49.155Z,510
2019-03-15T09:43:52.498Z,490
2019-03-15T09:44:49.127Z,475
2019-03-15T09:45:49.124Z,500
2019-03-15T09:46:49.105Z,520
2019-03-15T09:47:49.111Z,500
2019-03-15T09:48:51.107Z,425
2019-03-15T09:49:48.844Z,385
2019-03-15T09:51:00.036Z,435
2019-03-15T09:51:48.834Z,495
2019-03-15T09:52:49.094Z,545
2019-03-15T09:53:49.071Z,560
2019-03-15T09:54:49.149Z,545
2019-03-15T09:55:49.057Z,550
2019-03-15T09:56:48.836Z,565
2019-03-15T09:57:49.147Z,570
2019-03-15T09:58:49.043Z,560
2019-03-15T09:59:49.052Z,530
2019-03-15T10:00:49.041Z,510
2019-03-15T10:01:49.028Z,490
2019-03-15T10:02:49.036Z,525
2019-03-15T10:03:49.019Z,545
2019-03-15T10:04:49.019Z,515
2019-03-15T10:05:49.019Z,485
2019-03-15T10:06:49.002Z,515
2019-03-15T10:07:53.057Z,565
2019-03-15T10:08:48.991Z,575
2019-03-15T10:09:55.911Z,585
2019-03-15T10:10:51.649Z,590
2019-03-15T10:11:48.976Z,575
2019-03-15T10:12:48.975Z,560
2019-03-15T10:13:48.985Z,555
2019-03-15T10:14:48.972Z,545
2019-03-15T10:15:49.516Z,525
2019-03-15T10:16:49.031Z,525
2019-03-15T10:17:49.057Z,525
2019-03-15T10:18:50.482Z,535
2019-03-15T10:19:48.945Z,540
2019-03-15T10:20:50.355Z,545
2019-03-15T10:21:48.931Z,540
2019-03-15T10:23:06.946Z,520
2019-03-15T10:23:48.925Z,510
2019-03-15T10:24:48.916Z,495
2019-03-15T10:25:58.405Z,470
2019-03-15T10:26:48.913Z,455
2019-03-15T10:27:48.911Z,430
2019-03-15T10:28:48.898Z,415
2019-03-15T10:29:48.660Z,420
2019-03-15T10:30:48.898Z,420
2019-03-15T10:31:48.885Z,490
2019-03-15T10:32:48.885Z,435
2019-03-15T10:33:59.581Z,460
2019-03-15T10:34:48.881Z,475
2019-03-15T10:35:48.869Z,490
2019-03-15T10:36:48.867Z,525
2019-03-15T10:37:48.867Z,550
2019-03-15T10:38:48.851Z,530
2019-03-15T10:39:48.857Z,540
2019-03-15T10:40:48.848Z,560
2019-03-15T10:41:48.840Z,530
2019-03-15T10:42:48.844Z,530
2019-03-15T10:43:48.908Z,555
2019-03-15T10:44:48.828Z,595
2019-03-15T10:45:48.822Z,610
2019-03-15T10:46:50.080Z,600
2019-03-15T10:47:51.569Z,545
2019-03-15T10:48:48.819Z,505
2019-03-15T10:49:48.564Z,425
2019-03-15T10:50:48.810Z,375
2019-03-15T10:51:48.831Z,410
2019-03-15T10:52:48.796Z,405
2019-03-15T10:53:48.553Z,415
2019-03-15T10:54:48.788Z,425
2019-03-15T10:56:01.750Z,455
2019-03-15T10:56:48.530Z,410
2019-03-15T10:57:48.771Z,315
2019-03-15T10:58:48.853Z,325
2019-03-15T10:59:48.759Z,385
2019-03-15T11:00:48.758Z,470
2019-03-15T11:01:48.754Z,490
2019-03-15T11:02:48.787Z,465
2019-03-15T11:03:48.743Z,395
2019-03-15T11:04:48.734Z,375
2019-03-15T11:05:48.735Z,295
2019-03-15T11:06:48.736Z,255
2019-03-15T11:07:48.588Z,215
2019-03-15T11:08:48.721Z,180
2019-03-15T11:09:48.726Z,145
2019-03-15T11:10:48.712Z,155
2019-03-15T11:11:48.826Z,200
2019-03-15T11:12:48.712Z,280
2019-03-15T11:13:48.694Z,370
2019-03-15T11:14:48.688Z,425
2019-03-15T11:15:48.684Z,455
2019-03-15T11:16:48.675Z,435
2019-03-15T11:17:48.692Z,455
2019-03-15T11:18:48.665Z,460
2019-03-15T11:19:48.670Z,440
2019-03-15T11:20:48.655Z,455
2019-03-15T11:21:48.662Z,515
2019-03-15T11:22:48.754Z,535
2019-03-15T11:23:48.640Z,520
2019-03-15T11:24:50.969Z,525
2019-03-15T11:25:48.650Z,520
2019-03-15T11:26:48.622Z,540
2019-03-15T11:27:48.729Z,515
2019-03-15T11:28:48.614Z,490
2019-03-15T11:29:48.627Z,485
2019-03-15T11:30:48.610Z,495
2019-03-15T11:31:48.600Z,495
2019-03-15T11:32:48.655Z,485
2019-03-15T11:33:51.973Z,430
2019-03-15T11:34:48.578Z,375
2019-03-15T11:35:48.574Z,315
2019-03-15T11:37:05.704Z,370
2019-03-15T11:37:48.567Z,445
2019-03-15T11:38:48.565Z,465
2019-03-15T11:39:48.554Z,475
2019-03-15T11:40:48.547Z,470
2019-03-15T11:41:48.546Z,515
2019-03-15T11:42:48.556Z,500
2019-03-15T11:43:48.645Z,475
2019-03-15T11:44:48.528Z,510
2019-03-15T11:45:48.526Z,495
2019-03-15T11:46:48.727Z,450
2019-03-15T11:48:13.805Z,410
2019-03-15T11:48:48.514Z,415
2019-03-15T11:49:48.509Z,425
2019-03-15T11:50:48.499Z,445
2019-03-15T11:51:51.999Z,435
2019-03-15T11:52:48.497Z,470
2019-03-15T11:53:48.485Z,495
2019-03-15T11:54:49.726Z,505
2019-03-15T11:55:48.475Z,510
2019-03-15T11:56:50.791Z,550
2019-03-15T11:57:48.222Z,575
2019-03-15T11:58:48.457Z,560
2019-03-15T11:59:48.455Z,535
2019-03-15T12:00:48.454Z,530
2019-03-15T12:01:48.437Z,550
2019-03-15T12:02:48.439Z,570
2019-03-15T12:04:01.835Z,595
2019-03-15T12:04:48.450Z,585
2019-03-15T12:05:48.439Z,540
2019-03-15T12:06:48.190Z,525
2019-03-15T12:07:48.423Z,515
2019-03-15T12:08:48.416Z,515
2019-03-15T12:09:50.555Z,520
2019-03-15T12:10:48.400Z,485
2019-03-15T12:11:48.398Z,460
2019-03-15T12:12:48.393Z,410
2019-03-15T12:13:48.397Z,410
2019-03-15T12:14:50.799Z,395
2019-03-15T12:15:48.377Z,315
2019-03-15T12:16:48.373Z,380
2019-03-15T12:17:48.397Z,420
2019-03-15T12:18:48.375Z,390
2019-03-15T12:19:48.364Z,430
2019-03-15T12:20:51.582Z,485
2019-03-15T12:21:48.363Z,475
2019-03-15T12:22:48.344Z,465
2019-03-15T12:23:48.360Z,390
2019-03-15T12:24:48.331Z,405
2019-03-15T12:25:48.337Z,435
2019-03-15T12:26:50.140Z,410
2019-03-15T12:27:48.327Z,385
2019-03-15T12:28:48.322Z,410
2019-03-15T12:29:48.330Z,390
2019-03-15T12:30:50.241Z,370
2019-03-15T12:31:48.309Z,340
2019-03-15T12:32:48.330Z,245
2019-03-15T12:33:48.303Z,205
2019-03-15T12:34:48.305Z,185
2019-03-15T12:35:48.299Z,170
2019-03-15T12:36:48.356Z,180
2019-03-15T12:37:48.284Z,255
2019-03-15T12:38:48.266Z,335
2019-03-15T12:39:48.266Z,355
2019-03-15T12:40:48.262Z,400
2019-03-15T12:41:48.258Z,445
2019-03-15T12:42:48.253Z,450
2019-03-15T12:43:48.244Z,460
2019-03-15T12:44:48.243Z,470
2019-03-15T12:45:48.253Z,485
2019-03-15T12:46:48.242Z,500
2019-03-15T12:47:48.225Z,520
2019-03-15T12:48:48.228Z,520
2019-03-15T12:49:48.211Z,520
2019-03-15T12:50:48.210Z,510
2019-03-15T12:51:47.955Z,490
2019-03-15T12:52:56.710Z,475
2019-03-15T12:53:48.188Z,455
2019-03-15T12:54:48.185Z,390
2019-03-15T12:55:48.184Z,320
2019-03-15T12:57:00.772Z,225
2019-03-15T12:57:51.529Z,190
2019-03-15T12:58:48.172Z,175
2019-03-15T12:59:48.171Z,125
2019-03-15T13:00:48.165Z,130
2019-03-15T13:01:48.148Z,130
2019-03-15T13:02:47.917Z,165
2019-03-15T13:03:48.140Z,155
2019-03-15T13:04:48.189Z,160
2019-03-15T13:05:48.191Z,200
2019-03-15T13:06:48.144Z,235
2019-03-15T13:07:47.929Z,245
2019-03-15T13:08:49.798Z,305
2019-03-15T13:09:48.106Z,330
2019-03-15T13:10:48.096Z,345
2019-03-15T13:11:48.089Z,345
2019-03-15T13:12:48.105Z,325
2019-03-15T13:13:50.681Z,315
2019-03-15T13:14:48.077Z,340
2019-03-15T13:15:48.073Z,360
2019-03-15T13:16:48.068Z,345
2019-03-15T13:17:48.054Z,335
2019-03-15T13:18:48.048Z,340
2019-03-15T13:20:01.549Z,335
2019-03-15T13:20:48.035Z,340
2019-03-15T13:21:48.026Z,320
2019-03-15T13:22:48.037Z,315
2019-03-15T13:23:48.031Z,275
2019-03-15T13:24:48.010Z,230
2019-03-15T13:25:47.999Z,335
2019-03-15T13:26:47.992Z,385
2019-03-15T13:27:47.532Z,300
2019-03-15T13:28:48.063Z,290
2019-03-15T13:29:47.981Z,265
2019-03-15T13:30:47.994Z,220
2019-03-15T13:31:47.964Z,270
2019-03-15T13:32:47.962Z,230
2019-03-15T13:33:47.959Z,200
2019-03-15T13:34:47.945Z,205
2019-03-15T13:35:47.935Z,190
2019-03-15T13:36:47.929Z,140
2019-03-15T13:37:50.247Z,155
2019-03-15T13:38:47.928Z,195
2019-03-15T13:39:48.002Z,220
2019-03-15T13:40:47.898Z,195
2019-03-15T13:41:47.889Z,185
2019-03-15T13:42:47.505Z,240
2019-03-15T13:43:47.884Z,195
2019-03-15T13:44:47.875Z,175
2019-03-15T13:45:47.874Z,215
2019-03-15T13:46:47.872Z,220
2019-03-15T13:47:47.863Z,180
2019-03-15T13:48:47.848Z,170
2019-03-15T13:49:47.843Z,165
2019-03-15T13:50:47.837Z,140
2019-03-15T13:51:47.826Z,165
2019-03-15T13:52:47.822Z,150
2019-03-15T13:53:47.835Z,115
2019-03-15T13:54:47.804Z,120
2019-03-15T13:55:47.794Z,110
2019-03-15T13:56:50.785Z,175
2019-03-15T13:57:47.541Z,185
2019-03-15T13:59:01.137Z,180
2019-03-15T13:59:47.766Z,230
2019-03-15T14:00:47.516Z,255
2019-03-15T14:01:47.749Z,270
2019-03-15T14:02:47.749Z,305
2019-03-15T14:03:47.777Z,295
2019-03-15T14:04:47.728Z,225
2019-03-15T14:05:47.720Z,215
2019-03-15T14:06:47.476Z,210
2019-03-15T14:07:47.729Z,190
2019-03-15T14:08:47.699Z,195
2019-03-15T14:09:47.687Z,180
2019-03-15T14:10:58.667Z,165
2019-03-15T14:11:47.694Z,165